EST,Max TemperatureF,Mean TemperatureF,Min TemperatureF,Max Dew PointF,MeanDew PointF,Min DewpointF,Max Humidity, Mean Humidity, Min Humidity, Max Sea Level PressureIn, Mean Sea Level PressureIn, Min Sea Level PressureIn, Max VisibilityMiles, Mean VisibilityMiles, Min VisibilityMiles, Max Wind SpeedMPH, Mean Wind SpeedMPH, Max Gust SpeedMPH,PrecipitationIn, CloudCover, Events, WindDirDegrees
2013-2-1,15,12,10,9,6,1,80,72,58,30.13,30.06,29.86,10,5,1,16,9,21,0.00,8,Snow,270
2013-2-2,16,10,3,8,4,-2,82,69,49,30.08,29.99,29.96,10,6,1,10,3,,0.00,7,Snow,338
2013-2-3,19,10,1,10,6,-3,82,75,65,29.96,29.87,29.80,10,6,0,16,3,23,0.00,8,Snow,271
2013-2-4,21,10,1,11,6,-4,85,73,54,29.94,29.90,29.85,10,9,1,6,2,,0.00,5,Snow,253
2013-2-5,28,12,-5,22,8,-11,81,76,66,29.95,29.81,29.69,10,9,2,15,3,22,0.00,6,Snow,255
2013-2-6,31,18,6,20,14,2,92,71,51,30.22,30.14,29.96,10,9,4,10,3,,0.00,7,Snow,233
2013-2-7,30,28,27,28,25,18,94,85,65,30.18,30.04,29.90,10,3,0,9,5,,0.00,8,Snow,116
2013-2-8,30,16,1,28,17,-4,93,76,58,30.33,30.13,29.90,10,8,1,15,9,21,0.00,4,Snow,3
2013-2-9,30,12,-6,19,4,-13,93,74,55,30.38,30.30,30.17,10,7,0,12,2,17,0.00,2,Snow,160
2013-2-10,41,20,2,39,19,-3,96,85,72,30.17,29.90,29.51,10,7,1,16,3,24,0.00,5,Rain-Snow,139
2013-2-11,43,36,30,42,30,24,97,80,69,29.80,29.54,29.42,10,7,0,25,14,34,0.00,8,Snow,242
2013-2-12,30,24,18,23,20,16,93,72,64,29.97,29.91,29.80,10,10,4,16,10,23,0.00,8,Snow,269
2013-2-13,34,25,16,29,25,14,96,85,72,29.85,29.74,29.68,10,6,2,12,3,18,0.00,7,,182
2013-2-14,38,32,25,33,30,19,99,90,73,29.85,29.65,29.54,10,4,0,21,5,31,0.00,8,Rain-Snow,213
2013-2-15,26,22,17,19,14,10,89,72,52,30.09,30.01,29.86,10,9,1,17,9,22,0.00,7,Snow,297
2013-2-16,24,12,0,16,7,-6,92,73,40,30.08,30.01,29.97,10,9,1,10,3,,0.00,4,Snow,327
2013-2-17,23,8,-8,7,-1,-15,81,67,45,30.16,30.11,30.07,10,10,10,8,1,,0.00,5,,212
2013-2-18,43,27,12,40,20,7,95,64,49,30.07,29.77,29.39,10,9,3,16,7,25,0.00,4,Rain,156
2013-2-19,42,29,16,40,23,9,93,81,69,29.89,29.55,29.28,10,4,0,23,15,33,0.00,8,Rain-Snow,267
2013-2-20,22,18,15,15,11,8,79,71,61,30.23,30.09,29.89,10,7,0,20,14,28,0.00,8,Snow,315
2013-2-21,26,22,18,16,13,10,84,69,54,30.35,30.28,30.19,10,10,10,14,9,20,0.00,6,Snow,40
2013-2-22,30,24,20,28,22,17,96,87,74,30.19,29.94,29.78,10,5,0,13,9,22,0.00,8,Snow,119
2013-2-23,32,30,27,30,25,20,95,82,64,29.84,29.80,29.76,10,6,1,13,6,17,0.00,8,Snow,234
2013-2-24,36,26,15,26,23,13,93,76,55,30.11,29.97,29.82,10,9,2,14,6,20,0.00,7,Snow,287
2013-2-25,37,24,10,28,17,7,96,82,54,30.18,30.13,30.07,10,7,0,6,0,,0.00,6,Fog,352
2013-2-26,37,26,14,31,22,12,94,75,52,30.10,29.84,29.57,10,8,0,18,7,33,0.00,3,Snow,68
2013-2-27,37,35,33,33,32,30,96,90,77,29.61,29.54,29.50,10,7,1,12,8,18,0.00,8,Snow,40
2013-2-28,34,31,28,32,27,18,94,79,64,29.99,29.79,29.61,10,10,5,14,9,21,0.00,8,Snow,354